sensor_id;sensor_type;location;lat;lon;timestamp;temperature;humidity
21199;DHT22;10757;51.038;3.712;2022-09-21T00:02:13;12.20;99.90
21199;DHT22;10757;51.038;3.712;2022-09-21T00:04:39;12.20;99.90
21199;DHT22;10757;51.038;3.712;2022-09-21T00:07:05;12.20;99.90
21199;DHT22;10757;51.038;3.712;2022-09-21T00:09:30;12.20;99.90
21199;DHT22;10757;51.038;3.712;2022-09-21T00:11:56;12.20;99.90
21199;DHT22;10757;51.038;3.712;2022-09-21T00:14:22;12.20;99.90
21199;DHT22;10757;51.038;3.712;2022-09-21T00:16:47;12.30;99.90
21199;DHT22;10757;51.038;3.712;2022-09-21T00:19:13;12.20;99.90
21199;DHT22;10757;51.038;3.712;2022-09-21T00:21:41;12.20;99.90
21199;DHT22;10757;51.038;3.712;2022-09-21T00:24:06;12.10;99.90
21199;DHT22;10757;51.038;3.712;2022-09-21T00:26:32;12.30;99.90
21199;DHT22;10757;51.038;3.712;2022-09-21T00:29:00;12.30;99.90
21199;DHT22;10757;51.038;3.712;2022-09-21T00:31:27;12.30;99.90
21199;DHT22;10757;51.038;3.712;2022-09-21T00:33:54;12.30;99.90
21199;DHT22;10757;51.038;3.712;2022-09-21T00:36:22;12.30;99.90
21199;DHT22;10757;51.038;3.712;2022-09-21T00:38:50;12.30;99.90
21199;DHT22;10757;51.038;3.712;2022-09-21T00:41:17;12.20;99.90
21199;DHT22;10757;51.038;3.712;2022-09-21T00:43:46;12.20;99.90
21199;DHT22;10757;51.038;3.712;2022-09-21T00:46:26;12.20;99.90
21199;DHT22;10757;51.038;3.712;2022-09-21T00:48:53;12.30;99.90
21199;DHT22;10757;51.038;3.712;2022-09-21T00:51:20;12.20;99.90
21199;DHT22;10757;51.038;3.712;2022-09-21T00:53:47;12.20;99.90
21199;DHT22;10757;51.038;3.712;2022-09-21T00:56:15;12.00;99.90
21199;DHT22;10757;51.038;3.712;2022-09-21T00:58:49;12.00;99.90
21199;DHT22;10757;51.038;3.712;2022-09-21T01:01:16;11.90;99.90
21199;DHT22;10757;51.038;3.712;2022-09-21T01:03:44;12.00;99.90
21199;DHT22;10757;51.038;3.712;2022-09-21T01:06:12;12.00;99.90
21199;DHT22;10757;51.038;3.712;2022-09-21T01:08:38;12.00;99.90
21199;DHT22;10757;51.038;3.712;2022-09-21T01:16:22;12.00;99.90
21199;DHT22;10757;51.038;3.712;2022-09-21T01:19:00;12.00;99.90
21199;DHT22;10757;51.038;3.712;2022-09-21T01:21:43;12.00;99.90
21199;DHT22;10757;51.038;3.712;2022-09-21T01:27:28;11.90;99.90
21199;DHT22;10757;51.038;3.712;2022-09-21T01:30:06;11.80;99.90
21199;DHT22;10757;51.038;3.712;2022-09-21T01:32:40;11.80;99.90
21199;DHT22;10757;51.038;3.712;2022-09-21T01:35:11;11.80;99.90
21199;DHT22;10757;51.038;3.712;2022-09-21T01:40:18;11.60;99.90
21199;DHT22;10757;51.038;3.712;2022-09-21T01:42:47;11.60;99.90
21199;DHT22;10757;51.038;3.712;2022-09-21T01:45:16;11.60;99.90
21199;DHT22;10757;51.038;3.712;2022-09-21T01:47:45;11.60;99.90
21199;DHT22;10757;51.038;3.712;2022-09-21T01:50:13;11.60;99.90
21199;DHT22;10757;51.038;3.712;2022-09-21T01:53:01;11.50;99.90
21199;DHT22;10757;51.038;3.712;2022-09-21T01:55:34;11.50;99.90
21199;DHT22;10757;51.038;3.712;2022-09-21T01:58:28;11.50;99.90
21199;DHT22;10757;51.038;3.712;2022-09-21T02:00:57;11.60;99.90
21199;DHT22;10757;51.038;3.712;2022-09-21T02:03:31;11.50;99.90
21199;DHT22;10757;51.038;3.712;2022-09-21T02:05:58;11.50;99.90
21199;DHT22;10757;51.038;3.712;2022-09-21T02:08:25;11.50;99.90
21199;DHT22;10757;51.038;3.712;2022-09-21T02:10:52;11.50;99.90
21199;DHT22;10757;51.038;3.712;2022-09-21T02:13:19;11.40;99.90
21199;DHT22;10757;51.038;3.712;2022-09-21T02:21:28;11.40;99.90
21199;DHT22;10757;51.038;3.712;2022-09-21T02:24:27;11.30;99.90
21199;DHT22;10757;51.038;3.712;2022-09-21T02:27:03;11.30;99.90
21199;DHT22;10757;51.038;3.712;2022-09-21T02:29:52;11.20;99.90
21199;DHT22;10757;51.038;3.712;2022-09-21T02:35:15;11.20;99.90
21199;DHT22;10757;51.038;3.712;2022-09-21T02:37:47;11.10;99.90
21199;DHT22;10757;51.038;3.712;2022-09-21T02:40:29;11.10;99.90
21199;DHT22;10757;51.038;3.712;2022-09-21T02:43:04;11.10;99.90
21199;DHT22;10757;51.038;3.712;2022-09-21T02:45:37;11.20;99.90
21199;DHT22;10757;51.038;3.712;2022-09-21T02:48:13;11.30;99.90
21199;DHT22;10757;51.038;3.712;2022-09-21T02:50:45;11.30;99.90
21199;DHT22;10757;51.038;3.712;2022-09-21T02:53:14;11.20;99.90
21199;DHT22;10757;51.038;3.712;2022-09-21T02:55:42;11.20;99.90
21199;DHT22;10757;51.038;3.712;2022-09-21T02:58:20;11.10;99.90
21199;DHT22;10757;51.038;3.712;2022-09-21T03:00:46;11.00;99.90
21199;DHT22;10757;51.038;3.712;2022-09-21T03:03:22;11.10;99.90
21199;DHT22;10757;51.038;3.712;2022-09-21T03:05:53;11.10;99.90
21199;DHT22;10757;51.038;3.712;2022-09-21T03:08:20;11.00;99.90
21199;DHT22;10757;51.038;3.712;2022-09-21T03:10:49;11.10;99.90
21199;DHT22;10757;51.038;3.712;2022-09-21T03:13:17;11.10;99.90
21199;DHT22;10757;51.038;3.712;2022-09-21T03:15:43;11.10;99.90
21199;DHT22;10757;51.038;3.712;2022-09-21T03:18:10;11.10;99.90
21199;DHT22;10757;51.038;3.712;2022-09-21T03:20:38;11.10;99.90
21199;DHT22;10757;51.038;3.712;2022-09-21T03:23:04;11.10;99.90
21199;DHT22;10757;51.038;3.712;2022-09-21T03:25:30;11.10;99.90
21199;DHT22;10757;51.038;3.712;2022-09-21T03:27:57;11.10;99.90
21199;DHT22;10757;51.038;3.712;2022-09-21T03:30:24;11.20;99.90
21199;DHT22;10757;51.038;3.712;2022-09-21T03:32:55;11.20;99.90
21199;DHT22;10757;51.038;3.712;2022-09-21T03:35:23;11.20;99.90
21199;DHT22;10757;51.038;3.712;2022-09-21T03:37:51;11.20;99.90
21199;DHT22;10757;51.038;3.712;2022-09-21T03:40:17;11.20;99.90
21199;DHT22;10757;51.038;3.712;2022-09-21T03:42:44;11.20;99.90
21199;DHT22;10757;51.038;3.712;2022-09-21T03:45:11;11.20;99.90
21199;DHT22;10757;51.038;3.712;2022-09-21T03:47:38;11.20;99.90
21199;DHT22;10757;51.038;3.712;2022-09-21T03:50:05;11.20;99.90
21199;DHT22;10757;51.038;3.712;2022-09-21T03:52:31;11.20;99.90
21199;DHT22;10757;51.038;3.712;2022-09-21T03:54:57;11.20;99.90
21199;DHT22;10757;51.038;3.712;2022-09-21T03:57:26;11.20;99.90
21199;DHT22;10757;51.038;3.712;2022-09-21T03:59:52;11.40;99.90
21199;DHT22;10757;51.038;3.712;2022-09-21T04:02:18;11.50;99.90
21199;DHT22;10757;51.038;3.712;2022-09-21T04:04:44;11.80;99.90
21199;DHT22;10757;51.038;3.712;2022-09-21T04:07:10;11.70;99.90
21199;DHT22;10757;51.038;3.712;2022-09-21T04:09:35;11.70;99.90
21199;DHT22;10757;51.038;3.712;2022-09-21T04:12:01;11.60;99.90
21199;DHT22;10757;51.038;3.712;2022-09-21T04:14:27;11.50;99.90
21199;DHT22;10757;51.038;3.712;2022-09-21T04:16:53;11.50;99.90
21199;DHT22;10757;51.038;3.712;2022-09-21T04:19:19;11.30;99.90
21199;DHT22;10757;51.038;3.712;2022-09-21T04:21:46;11.30;99.90
21199;DHT22;10757;51.038;3.712;2022-09-21T04:24:16;11.30;99.90
21199;DHT22;10757;51.038;3.712;2022-09-21T04:26:44;11.30;99.90
21199;DHT22;10757;51.038;3.712;2022-09-21T04:29:12;11.10;99.90
21199;DHT22;10757;51.038;3.712;2022-09-21T04:31:38;10.90;99.90
21199;DHT22;10757;51.038;3.712;2022-09-21T04:34:04;11.00;99.90
21199;DHT22;10757;51.038;3.712;2022-09-21T04:36:30;10.90;99.90
21199;DHT22;10757;51.038;3.712;2022-09-21T04:38:59;11.00;99.90
21199;DHT22;10757;51.038;3.712;2022-09-21T04:41:25;10.80;99.90
21199;DHT22;10757;51.038;3.712;2022-09-21T04:43:53;10.80;99.90
21199;DHT22;10757;51.038;3.712;2022-09-21T04:46:19;10.90;99.90
21199;DHT22;10757;51.038;3.712;2022-09-21T04:48:46;10.90;99.90
21199;DHT22;10757;51.038;3.712;2022-09-21T04:51:14;10.90;99.90
21199;DHT22;10757;51.038;3.712;2022-09-21T04:53:41;10.90;99.90
21199;DHT22;10757;51.038;3.712;2022-09-21T04:56:12;10.90;99.90
21199;DHT22;10757;51.038;3.712;2022-09-21T04:58:40;10.80;99.90
21199;DHT22;10757;51.038;3.712;2022-09-21T05:01:06;10.80;99.90
21199;DHT22;10757;51.038;3.712;2022-09-21T05:03:32;10.80;99.90
21199;DHT22;10757;51.038;3.712;2022-09-21T05:05:58;10.80;99.90
21199;DHT22;10757;51.038;3.712;2022-09-21T05:08:25;10.80;99.90
21199;DHT22;10757;51.038;3.712;2022-09-21T05:11:14;10.80;99.90
21199;DHT22;10757;51.038;3.712;2022-09-21T05:13:41;10.80;99.90
21199;DHT22;10757;51.038;3.712;2022-09-21T05:16:07;10.80;99.90
21199;DHT22;10757;51.038;3.712;2022-09-21T05:18:36;10.70;99.90
21199;DHT22;10757;51.038;3.712;2022-09-21T05:21:03;10.70;99.90
21199;DHT22;10757;51.038;3.712;2022-09-21T05:23:31;10.70;99.90
21199;DHT22;10757;51.038;3.712;2022-09-21T05:25:58;10.70;99.90
21199;DHT22;10757;51.038;3.712;2022-09-21T05:28:25;10.70;99.90
21199;DHT22;10757;51.038;3.712;2022-09-21T05:34:15;10.70;99.90
21199;DHT22;10757;51.038;3.712;2022-09-21T05:36:47;10.80;99.90
21199;DHT22;10757;51.038;3.712;2022-09-21T05:39:16;10.90;99.90
21199;DHT22;10757;51.038;3.712;2022-09-21T05:41:42;10.90;99.90
21199;DHT22;10757;51.038;3.712;2022-09-21T05:44:12;10.90;99.90
21199;DHT22;10757;51.038;3.712;2022-09-21T05:46:45;10.90;99.90
21199;DHT22;10757;51.038;3.712;2022-09-21T05:49:18;10.90;99.90
21199;DHT22;10757;51.038;3.712;2022-09-21T05:54:51;11.10;99.90
21199;DHT22;10757;51.038;3.712;2022-09-21T05:57:45;11.20;99.90
21199;DHT22;10757;51.038;3.712;2022-09-21T06:00:18;11.50;99.90
21199;DHT22;10757;51.038;3.712;2022-09-21T06:02:56;11.70;99.90
21199;DHT22;10757;51.038;3.712;2022-09-21T06:05:28;11.60;99.90
21199;DHT22;10757;51.038;3.712;2022-09-21T06:07:54;11.60;99.90
21199;DHT22;10757;51.038;3.712;2022-09-21T06:10:20;11.60;99.90
21199;DHT22;10757;51.038;3.712;2022-09-21T06:12:46;11.70;99.90
21199;DHT22;10757;51.038;3.712;2022-09-21T06:15:21;11.70;99.90
21199;DHT22;10757;51.038;3.712;2022-09-21T06:20:27;11.90;99.90
21199;DHT22;10757;51.038;3.712;2022-09-21T06:23:02;12.00;99.90
21199;DHT22;10757;51.038;3.712;2022-09-21T06:25:28;12.00;99.90
21199;DHT22;10757;51.038;3.712;2022-09-21T06:28:05;11.90;99.90
21199;DHT22;10757;51.038;3.712;2022-09-21T06:30:35;11.90;99.90
21199;DHT22;10757;51.038;3.712;2022-09-21T06:33:10;11.70;99.90
21199;DHT22;10757;51.038;3.712;2022-09-21T06:35:36;12.00;99.90
21199;DHT22;10757;51.038;3.712;2022-09-21T06:38:04;12.10;99.90
21199;DHT22;10757;51.038;3.712;2022-09-21T06:40:33;12.30;99.90
21199;DHT22;10757;51.038;3.712;2022-09-21T06:43:01;12.40;99.90
21199;DHT22;10757;51.038;3.712;2022-09-21T06:45:28;12.50;99.90
21199;DHT22;10757;51.038;3.712;2022-09-21T06:47:54;12.50;99.90
21199;DHT22;10757;51.038;3.712;2022-09-21T06:50:20;12.50;99.90
21199;DHT22;10757;51.038;3.712;2022-09-21T06:52:46;12.60;99.90
21199;DHT22;10757;51.038;3.712;2022-09-21T06:55:15;12.70;99.90
21199;DHT22;10757;51.038;3.712;2022-09-21T06:57:44;12.80;99.90
21199;DHT22;10757;51.038;3.712;2022-09-21T07:00:12;12.90;99.90
21199;DHT22;10757;51.038;3.712;2022-09-21T07:02:45;12.90;99.90
21199;DHT22;10757;51.038;3.712;2022-09-21T07:05:11;13.10;99.90
21199;DHT22;10757;51.038;3.712;2022-09-21T07:07:40;13.40;99.90
21199;DHT22;10757;51.038;3.712;2022-09-21T07:10:09;13.30;99.90
21199;DHT22;10757;51.038;3.712;2022-09-21T07:12:44;13.30;99.90
21199;DHT22;10757;51.038;3.712;2022-09-21T07:15:12;13.30;99.90
21199;DHT22;10757;51.038;3.712;2022-09-21T07:17:39;13.30;99.90
21199;DHT22;10757;51.038;3.712;2022-09-21T07:20:07;13.30;99.90
21199;DHT22;10757;51.038;3.712;2022-09-21T07:22:38;13.50;99.90
21199;DHT22;10757;51.038;3.712;2022-09-21T07:25:04;13.50;99.90
21199;DHT22;10757;51.038;3.712;2022-09-21T07:27:36;13.70;99.90
21199;DHT22;10757;51.038;3.712;2022-09-21T07:30:03;13.70;99.90
21199;DHT22;10757;51.038;3.712;2022-09-21T07:32:29;13.70;99.90
21199;DHT22;10757;51.038;3.712;2022-09-21T07:34:56;13.70;99.90
21199;DHT22;10757;51.038;3.712;2022-09-21T07:37:26;13.70;99.90
21199;DHT22;10757;51.038;3.712;2022-09-21T07:39:52;13.90;99.90
21199;DHT22;10757;51.038;3.712;2022-09-21T07:42:20;14.10;99.90
21199;DHT22;10757;51.038;3.712;2022-09-21T07:44:47;14.20;99.90
21199;DHT22;10757;51.038;3.712;2022-09-21T07:47:17;14.30;99.90
21199;DHT22;10757;51.038;3.712;2022-09-21T07:49:49;14.30;99.90
21199;DHT22;10757;51.038;3.712;2022-09-21T07:52:16;14.40;99.90
21199;DHT22;10757;51.038;3.712;2022-09-21T07:54:44;14.40;99.90
21199;DHT22;10757;51.038;3.712;2022-09-21T07:57:10;14.30;99.90
21199;DHT22;10757;51.038;3.712;2022-09-21T07:59:56;14.50;99.90
21199;DHT22;10757;51.038;3.712;2022-09-21T08:02:23;14.60;99.90
21199;DHT22;10757;51.038;3.712;2022-09-21T08:04:48;14.80;99.90
21199;DHT22;10757;51.038;3.712;2022-09-21T08:07:14;14.80;99.90
21199;DHT22;10757;51.038;3.712;2022-09-21T08:09:40;14.80;99.90
21199;DHT22;10757;51.038;3.712;2022-09-21T08:12:09;15.00;99.90
21199;DHT22;10757;51.038;3.712;2022-09-21T08:14:39;15.10;99.90
21199;DHT22;10757;51.038;3.712;2022-09-21T08:17:07;15.20;99.90
21199;DHT22;10757;51.038;3.712;2022-09-21T08:19:35;15.20;99.90
21199;DHT22;10757;51.038;3.712;2022-09-21T08:22:02;15.30;99.90
21199;DHT22;10757;51.038;3.712;2022-09-21T08:24:28;15.40;99.90
21199;DHT22;10757;51.038;3.712;2022-09-21T08:26:54;15.50;99.90
21199;DHT22;10757;51.038;3.712;2022-09-21T08:29:22;15.50;99.90
21199;DHT22;10757;51.038;3.712;2022-09-21T08:31:48;15.50;99.90
21199;DHT22;10757;51.038;3.712;2022-09-21T08:34:14;15.50;99.90
21199;DHT22;10757;51.038;3.712;2022-09-21T08:36:41;15.70;99.90
21199;DHT22;10757;51.038;3.712;2022-09-21T08:39:07;15.90;99.90
21199;DHT22;10757;51.038;3.712;2022-09-21T08:44:52;16.20;99.90
21199;DHT22;10757;51.038;3.712;2022-09-21T08:47:24;16.20;99.90
21199;DHT22;10757;51.038;3.712;2022-09-21T08:49:56;16.20;99.90
21199;DHT22;10757;51.038;3.712;2022-09-21T08:52:24;16.30;99.90
21199;DHT22;10757;51.038;3.712;2022-09-21T08:55:00;16.50;99.90
21199;DHT22;10757;51.038;3.712;2022-09-21T08:57:32;16.70;99.90
21199;DHT22;10757;51.038;3.712;2022-09-21T08:59:59;16.70;99.90
21199;DHT22;10757;51.038;3.712;2022-09-21T09:02:54;16.60;99.90
21199;DHT22;10757;51.038;3.712;2022-09-21T09:05:52;16.80;99.90
21199;DHT22;10757;51.038;3.712;2022-09-21T09:16:42;17.00;99.90
21199;DHT22;10757;51.038;3.712;2022-09-21T09:19:18;16.90;99.90
21199;DHT22;10757;51.038;3.712;2022-09-21T09:21:47;16.90;99.90
21199;DHT22;10757;51.038;3.712;2022-09-21T09:24:51;17.00;99.90
21199;DHT22;10757;51.038;3.712;2022-09-21T09:27:35;17.00;99.90
21199;DHT22;10757;51.038;3.712;2022-09-21T09:35:53;17.30;99.90
21199;DHT22;10757;51.038;3.712;2022-09-21T09:49:55;17.70;99.90
21199;DHT22;10757;51.038;3.712;2022-09-21T09:52:25;17.70;99.90
21199;DHT22;10757;51.038;3.712;2022-09-21T09:54:51;17.80;99.90
21199;DHT22;10757;51.038;3.712;2022-09-21T09:57:26;17.50;99.90
21199;DHT22;10757;51.038;3.712;2022-09-21T09:59:57;17.70;99.90
21199;DHT22;10757;51.038;3.712;2022-09-21T10:02:26;17.70;99.90
21199;DHT22;10757;51.038;3.712;2022-09-21T10:05:00;17.90;99.90
21199;DHT22;10757;51.038;3.712;2022-09-21T10:07:43;18.00;99.90
21199;DHT22;10757;51.038;3.712;2022-09-21T10:10:33;17.80;99.90
21199;DHT22;10757;51.038;3.712;2022-09-21T10:13:20;18.10;99.90
21199;DHT22;10757;51.038;3.712;2022-09-21T10:16:03;18.20;99.90
21199;DHT22;10757;51.038;3.712;2022-09-21T10:21:09;18.00;99.90
21199;DHT22;10757;51.038;3.712;2022-09-21T10:24:06;17.90;99.90
21199;DHT22;10757;51.038;3.712;2022-09-21T10:26:43;18.00;99.90
21199;DHT22;10757;51.038;3.712;2022-09-21T10:34:38;18.00;99.90
21199;DHT22;10757;51.038;3.712;2022-09-21T10:37:31;18.00;99.90
21199;DHT22;10757;51.038;3.712;2022-09-21T10:40:02;18.30;99.90
21199;DHT22;10757;51.038;3.712;2022-09-21T10:42:41;18.30;99.90
21199;DHT22;10757;51.038;3.712;2022-09-21T10:53:30;18.60;99.90
21199;DHT22;10757;51.038;3.712;2022-09-21T10:58:24;18.60;99.90
21199;DHT22;10757;51.038;3.712;2022-09-21T11:00:51;18.70;99.90
21199;DHT22;10757;51.038;3.712;2022-09-21T11:06:20;19.10;99.90
21199;DHT22;10757;51.038;3.712;2022-09-21T11:09:08;19.40;99.90
21199;DHT22;10757;51.038;3.712;2022-09-21T11:19:50;19.70;99.90
21199;DHT22;10757;51.038;3.712;2022-09-21T11:22:39;19.80;99.90
21199;DHT22;10757;51.038;3.712;2022-09-21T11:25:24;19.80;99.90
21199;DHT22;10757;51.038;3.712;2022-09-21T11:28:13;19.70;99.90
21199;DHT22;10757;51.038;3.712;2022-09-21T11:31:03;19.70;99.90
21199;DHT22;10757;51.038;3.712;2022-09-21T11:45:50;20.00;99.90
21199;DHT22;10757;51.038;3.712;2022-09-21T12:00:14;19.80;99.90
21199;DHT22;10757;51.038;3.712;2022-09-21T12:10:36;19.50;99.90
21199;DHT22;10757;51.038;3.712;2022-09-21T12:19:15;20.10;99.90
21199;DHT22;10757;51.038;3.712;2022-09-21T12:21:47;19.90;99.90
21199;DHT22;10757;51.038;3.712;2022-09-21T12:24:22;19.70;99.90
21199;DHT22;10757;51.038;3.712;2022-09-21T12:26:52;19.90;99.90
21199;DHT22;10757;51.038;3.712;2022-09-21T12:29:34;19.70;99.90
21199;DHT22;10757;51.038;3.712;2022-09-21T12:32:17;19.70;99.90
21199;DHT22;10757;51.038;3.712;2022-09-21T12:34:50;19.80;99.90
21199;DHT22;10757;51.038;3.712;2022-09-21T12:37:22;19.90;99.90
21199;DHT22;10757;51.038;3.712;2022-09-21T12:42:49;20.10;99.90
21199;DHT22;10757;51.038;3.712;2022-09-21T12:45:32;20.20;99.90
21199;DHT22;10757;51.038;3.712;2022-09-21T12:51:18;19.80;99.90
21199;DHT22;10757;51.038;3.712;2022-09-21T12:53:50;19.90;99.90
21199;DHT22;10757;51.038;3.712;2022-09-21T13:02:11;19.40;99.90
21199;DHT22;10757;51.038;3.712;2022-09-21T13:12:57;19.50;99.90
21199;DHT22;10757;51.038;3.712;2022-09-21T13:15:42;19.70;99.90
21199;DHT22;10757;51.038;3.712;2022-09-21T13:18:20;19.80;99.90
21199;DHT22;10757;51.038;3.712;2022-09-21T13:20:47;20.00;99.90
21199;DHT22;10757;51.038;3.712;2022-09-21T13:26:12;20.30;99.90
21199;DHT22;10757;51.038;3.712;2022-09-21T13:34:43;20.30;99.90
21199;DHT22;10757;51.038;3.712;2022-09-21T13:47:43;19.40;99.90
21199;DHT22;10757;51.038;3.712;2022-09-21T13:50:27;19.50;99.90
21199;DHT22;10757;51.038;3.712;2022-09-21T13:53:00;19.70;99.90
21199;DHT22;10757;51.038;3.712;2022-09-21T13:55:32;19.90;99.90
21199;DHT22;10757;51.038;3.712;2022-09-21T13:58:02;20.00;99.90
21199;DHT22;10757;51.038;3.712;2022-09-21T14:00:39;20.10;99.90
21199;DHT22;10757;51.038;3.712;2022-09-21T14:04:21;20.20;99.90
21199;DHT22;10757;51.038;3.712;2022-09-21T14:06:24;20.50;99.90
21199;DHT22;10757;51.038;3.712;2022-09-21T14:09:00;20.70;99.90
21199;DHT22;10757;51.038;3.712;2022-09-21T14:14:21;20.70;99.90
21199;DHT22;10757;51.038;3.712;2022-09-21T14:16:53;20.50;99.90
21199;DHT22;10757;51.038;3.712;2022-09-21T14:24:37;20.00;99.90
21199;DHT22;10757;51.038;3.712;2022-09-21T14:27:15;19.90;99.90
21199;DHT22;10757;51.038;3.712;2022-09-21T14:29:57;19.50;99.90
21199;DHT22;10757;51.038;3.712;2022-09-21T14:32:29;19.50;99.90
21199;DHT22;10757;51.038;3.712;2022-09-21T14:35:01;19.60;99.90
21199;DHT22;10757;51.038;3.712;2022-09-21T14:37:43;19.60;99.90
21199;DHT22;10757;51.038;3.712;2022-09-21T14:42:44;19.30;99.90
21199;DHT22;10757;51.038;3.712;2022-09-21T14:45:15;19.40;99.90
21199;DHT22;10757;51.038;3.712;2022-09-21T14:53:16;19.40;99.90
21199;DHT22;10757;51.038;3.712;2022-09-21T15:01:58;20.30;99.90
21199;DHT22;10757;51.038;3.712;2022-09-21T15:04:38;20.30;99.90
21199;DHT22;10757;51.038;3.712;2022-09-21T15:10:26;20.10;99.90
21199;DHT22;10757;51.038;3.712;2022-09-21T15:18:45;19.70;99.90
21199;DHT22;10757;51.038;3.712;2022-09-21T15:21:28;19.60;99.90
21199;DHT22;10757;51.038;3.712;2022-09-21T15:23:55;19.30;99.90
21199;DHT22;10757;51.038;3.712;2022-09-21T15:26:32;19.30;99.90
21199;DHT22;10757;51.038;3.712;2022-09-21T15:29:02;19.10;99.90
21199;DHT22;10757;51.038;3.712;2022-09-21T15:31:38;19.00;99.90
21199;DHT22;10757;51.038;3.712;2022-09-21T15:34:05;18.90;99.90
21199;DHT22;10757;51.038;3.712;2022-09-21T15:36:37;18.90;99.90
21199;DHT22;10757;51.038;3.712;2022-09-21T15:39:04;19.00;99.90
21199;DHT22;10757;51.038;3.712;2022-09-21T15:44:13;18.80;99.90
21199;DHT22;10757;51.038;3.712;2022-09-21T15:46:46;18.80;99.90
21199;DHT22;10757;51.038;3.712;2022-09-21T15:49:16;19.00;99.90
21199;DHT22;10757;51.038;3.712;2022-09-21T15:52:02;19.40;99.90
21199;DHT22;10757;51.038;3.712;2022-09-21T15:57:44;20.00;99.90
21199;DHT22;10757;51.038;3.712;2022-09-21T16:02:42;20.20;99.90
21199;DHT22;10757;51.038;3.712;2022-09-21T16:05:19;20.10;99.90
21199;DHT22;10757;51.038;3.712;2022-09-21T16:07:45;20.00;99.90
21199;DHT22;10757;51.038;3.712;2022-09-21T16:10:36;20.10;99.90
21199;DHT22;10757;51.038;3.712;2022-09-21T16:13:04;20.00;99.90
21199;DHT22;10757;51.038;3.712;2022-09-21T16:16:09;19.90;99.90
21199;DHT22;10757;51.038;3.712;2022-09-21T16:21:31;19.50;99.90
21199;DHT22;10757;51.038;3.712;2022-09-21T16:24:21;19.50;99.90
21199;DHT22;10757;51.038;3.712;2022-09-21T16:27:01;19.40;99.90
21199;DHT22;10757;51.038;3.712;2022-09-21T16:29:39;19.20;99.90
21199;DHT22;10757;51.038;3.712;2022-09-21T16:32:27;19.10;99.90
21199;DHT22;10757;51.038;3.712;2022-09-21T16:35:24;19.00;99.90
21199;DHT22;10757;51.038;3.712;2022-09-21T16:37:58;18.90;99.90
21199;DHT22;10757;51.038;3.712;2022-09-21T16:40:25;18.70;99.90
21199;DHT22;10757;51.038;3.712;2022-09-21T16:42:51;18.40;99.90
21199;DHT22;10757;51.038;3.712;2022-09-21T16:45:36;18.40;99.90
21199;DHT22;10757;51.038;3.712;2022-09-21T16:48:03;18.40;99.90
21199;DHT22;10757;51.038;3.712;2022-09-21T16:50:35;18.40;99.90
21199;DHT22;10757;51.038;3.712;2022-09-21T16:53:08;18.40;99.90
21199;DHT22;10757;51.038;3.712;2022-09-21T16:55:41;18.20;99.90
21199;DHT22;10757;51.038;3.712;2022-09-21T16:58:20;18.00;99.90
21199;DHT22;10757;51.038;3.712;2022-09-21T17:00:50;18.10;99.90
21199;DHT22;10757;51.038;3.712;2022-09-21T17:03:18;18.10;99.90
21199;DHT22;10757;51.038;3.712;2022-09-21T17:05:46;18.10;99.90
21199;DHT22;10757;51.038;3.712;2022-09-21T17:08:16;18.10;99.90
21199;DHT22;10757;51.038;3.712;2022-09-21T17:10:45;18.10;99.90
21199;DHT22;10757;51.038;3.712;2022-09-21T17:13:11;18.30;99.90
21199;DHT22;10757;51.038;3.712;2022-09-21T17:15:47;18.40;99.90
21199;DHT22;10757;51.038;3.712;2022-09-21T17:18:13;18.30;99.90
21199;DHT22;10757;51.038;3.712;2022-09-21T17:20:41;18.30;99.90
21199;DHT22;10757;51.038;3.712;2022-09-21T17:23:09;18.20;99.90
21199;DHT22;10757;51.038;3.712;2022-09-21T17:25:35;18.10;99.90
21199;DHT22;10757;51.038;3.712;2022-09-21T17:28:05;18.20;99.90
21199;DHT22;10757;51.038;3.712;2022-09-21T17:30:48;18.10;99.90
21199;DHT22;10757;51.038;3.712;2022-09-21T17:33:14;18.00;99.90
21199;DHT22;10757;51.038;3.712;2022-09-21T17:35:42;17.90;99.90
21199;DHT22;10757;51.038;3.712;2022-09-21T17:38:08;17.80;99.90
21199;DHT22;10757;51.038;3.712;2022-09-21T17:40:34;17.70;99.90
21199;DHT22;10757;51.038;3.712;2022-09-21T17:43:31;17.50;99.90
21199;DHT22;10757;51.038;3.712;2022-09-21T17:48:32;17.30;99.90
21199;DHT22;10757;51.038;3.712;2022-09-21T17:50:58;17.20;99.90
21199;DHT22;10757;51.038;3.712;2022-09-21T17:53:28;17.10;99.90
21199;DHT22;10757;51.038;3.712;2022-09-21T17:59:35;16.90;99.90
21199;DHT22;10757;51.038;3.712;2022-09-21T18:02:20;16.80;99.90
21199;DHT22;10757;51.038;3.712;2022-09-21T18:04:52;16.80;99.90
21199;DHT22;10757;51.038;3.712;2022-09-21T18:07:18;16.80;99.90
21199;DHT22;10757;51.038;3.712;2022-09-21T18:09:45;16.80;99.90
21199;DHT22;10757;51.038;3.712;2022-09-21T18:12:35;16.60;99.90
21199;DHT22;10757;51.038;3.712;2022-09-21T18:21:08;16.40;99.90
21199;DHT22;10757;51.038;3.712;2022-09-21T18:26:42;16.20;99.90
21199;DHT22;10757;51.038;3.712;2022-09-21T18:29:34;16.20;99.90
21199;DHT22;10757;51.038;3.712;2022-09-21T18:32:39;16.10;99.90
21199;DHT22;10757;51.038;3.712;2022-09-21T18:35:32;16.10;99.90
21199;DHT22;10757;51.038;3.712;2022-09-21T18:44:25;15.90;99.90
21199;DHT22;10757;51.038;3.712;2022-09-21T18:47:12;15.80;99.90
21199;DHT22;10757;51.038;3.712;2022-09-21T18:52:41;15.70;99.90
21199;DHT22;10757;51.038;3.712;2022-09-21T18:55:27;15.70;99.90
21199;DHT22;10757;51.038;3.712;2022-09-21T18:57:56;15.80;99.90
21199;DHT22;10757;51.038;3.712;2022-09-21T19:00:29;15.70;99.90
21199;DHT22;10757;51.038;3.712;2022-09-21T19:02:57;15.60;99.90
21199;DHT22;10757;51.038;3.712;2022-09-21T19:05:24;15.60;99.90
21199;DHT22;10757;51.038;3.712;2022-09-21T19:08:24;15.50;99.90
21199;DHT22;10757;51.038;3.712;2022-09-21T19:22:45;15.30;99.90
21199;DHT22;10757;51.038;3.712;2022-09-21T19:31:15;15.30;99.90
21199;DHT22;10757;51.038;3.712;2022-09-21T19:33:44;15.40;99.90
21199;DHT22;10757;51.038;3.712;2022-09-21T19:36:19;15.30;99.90
21199;DHT22;10757;51.038;3.712;2022-09-21T19:38:45;15.40;99.90
21199;DHT22;10757;51.038;3.712;2022-09-21T19:41:27;15.20;99.90
21199;DHT22;10757;51.038;3.712;2022-09-21T19:44:07;15.10;99.90
21199;DHT22;10757;51.038;3.712;2022-09-21T19:46:59;15.10;99.90
21199;DHT22;10757;51.038;3.712;2022-09-21T19:49:48;15.10;99.90
21199;DHT22;10757;51.038;3.712;2022-09-21T19:52:27;15.00;99.90
21199;DHT22;10757;51.038;3.712;2022-09-21T19:54:53;14.90;99.90
21199;DHT22;10757;51.038;3.712;2022-09-21T19:57:53;14.90;99.90
21199;DHT22;10757;51.038;3.712;2022-09-21T20:00:40;14.80;99.90
21199;DHT22;10757;51.038;3.712;2022-09-21T20:03:36;14.80;99.90
21199;DHT22;10757;51.038;3.712;2022-09-21T20:06:09;14.80;99.90
21199;DHT22;10757;51.038;3.712;2022-09-21T20:08:57;14.80;99.90
21199;DHT22;10757;51.038;3.712;2022-09-21T20:14:31;14.60;99.90
21199;DHT22;10757;51.038;3.712;2022-09-21T20:17:01;14.60;99.90